WetterOnline ( https://www.wetteronline.de )

Wetter aktuell Naumburg (Saale)

Aktuelles Wetter: Osterfeld (246m)

6-stündlich | Neueste Meldungen
Ortszeit Temperatur Wetter
Sa, 19.06. 8:00 23.6° C leicht bewölkt
Sa, 19.06. 2:00 22.0° C wolkenlos
Fr, 18.06. 20:00 28.7° C wolkenlos
Fr, 18.06. 14:00 31.4° C wolkenlos
Fr, 18.06. 8:00 23.6° C wolkenlos
Fr, 18.06. 2:00 20.8° C wolkenlos
Do, 17.06. 20:00 27.3° C wolkenlos
Do, 17.06. 14:00 30.4° C wolkenlos
Ortszeit Temperatur Wetter
Sa, 19.06. 13:00 29.0° C leicht bewölkt
Sa, 19.06. 12:50 29.0° C leicht bewölkt
Sa, 19.06. 12:40 29.0° C leicht bewölkt
Sa, 19.06. 12:30 28.7° C fast wolkenlos
Sa, 19.06. 12:20 28.7° C fast wolkenlos
Sa, 19.06. 12:10 28.8° C wolkenlos
Sa, 19.06. 12:00 28.0° C wolkenlos
Sa, 19.06. 11:30 27.5° C wolkenlos
Sa, 19.06. 11:00 27.5° C leicht bewölkt
Sa, 19.06. 10:30 27.6° C fast wolkenlos
Sa, 19.06. 10:00 26.8° C fast wolkenlos
Ortszeit Relative Feuchte Sichtweite
Sa, 19.06. 8:00 62% 11 km
Sa, 19.06. 2:00 68% 11 km
Fr, 18.06. 20:00 41% 11 km
Fr, 18.06. 14:00 38% 11 km
Fr, 18.06. 8:00 63% 11 km
Fr, 18.06. 2:00 65% 11 km
Do, 17.06. 20:00 49% 11 km
Do, 17.06. 14:00 38% 11 km
Ortszeit Relative Feuchte Sichtweite
Sa, 19.06. 13:00 54% 11 km
Sa, 19.06. 12:50 54% -
Sa, 19.06. 12:40 53% -
Sa, 19.06. 12:30 53% 11 km
Sa, 19.06. 12:20 53% -
Sa, 19.06. 12:10 56% -
Sa, 19.06. 12:00 57% 11 km
Sa, 19.06. 11:30 58% 11 km
Sa, 19.06. 11:00 56% 11 km
Sa, 19.06. 10:30 57% 6 km
Sa, 19.06. 10:00 54% 11 km
Ortszeit Niederschlagsmenge Niederschlagsart
Sa, 19.06. 8:00 0.0 l/m2 in 12 Std. -
Sa, 19.06. 2:00 0.0 l/m2 in 6 Std. -
Fr, 18.06. 20:00 0.0 l/m2 in 12 Std. -
Fr, 18.06. 14:00 0.0 l/m2 in 6 Std. -
Fr, 18.06. 8:00 0.0 l/m2 in 12 Std. -
Fr, 18.06. 2:00 0.0 l/m2 in 6 Std. -
Do, 17.06. 20:00 0.0 l/m2 in 12 Std. -
Do, 17.06. 14:00 0.0 l/m2 in 6 Std. -
Ortszeit Niederschlagsmenge Niederschlagsart
Sa, 19.06. 13:00 0.0 l/m2 in 1 Std. -
Sa, 19.06. 12:50 keine Meldung -
Sa, 19.06. 12:40 keine Meldung -
Sa, 19.06. 12:30 0.0 l/m2 in 1 Std. -
Sa, 19.06. 12:20 keine Meldung -
Sa, 19.06. 12:10 keine Meldung -
Sa, 19.06. 12:00 0.0 l/m2 in 1 Std. -
Sa, 19.06. 11:30 0.0 l/m2 in 1 Std. -
Sa, 19.06. 11:00 0.0 l/m2 in 1 Std. -
Sa, 19.06. 10:30 0.0 l/m2 in 1 Std. -
Sa, 19.06. 10:00 0.0 l/m2 in 1 Std. -
Ortszeit Stärke Spitze Richtung
km/h Bft. km/h Grad Sektor
Sa, 19.06. 8:00 7 2 11 230° SW
Sa, 19.06. 2:00 7 2 14 170° S
Fr, 18.06. 20:00 11 2 25 90° O
Fr, 18.06. 14:00 7 2 22 110° O
Fr, 18.06. 8:00 7 2 18 70° O
Fr, 18.06. 2:00 7 2 29 220° SW
Do, 17.06. 20:00 13 3 24 90° O
Do, 17.06. 14:00 11 2 29 100° O
Ortszeit Stärke Spitze Richtung
km/h Bft. km/h Grad Sektor
Sa, 19.06. 13:00 14 3 29 300° NW
Sa, 19.06. 12:50 14 3 - 300° NW
Sa, 19.06. 12:40 14 3 - 280° W
Sa, 19.06. 12:30 13 3 30 280° W
Sa, 19.06. 12:20 13 3 - 280° W
Sa, 19.06. 12:10 17 3 - 290° W
Sa, 19.06. 12:00 15 3 28 270° W
Sa, 19.06. 11:30 20 4 28 280° W
Sa, 19.06. 11:00 17 3 30 280° W
Sa, 19.06. 10:30 9 2 24 260° W
Sa, 19.06. 10:00 7 2 22 260° W
Ortszeit Untergrenze Bedeckung Gattung
total tief tief mittel hoch
Sa, 19.06. 8:00 8100 m 3/8 0/8 - - -
Sa, 19.06. 2:00 - 0/8 0/8 - - -
Fr, 18.06. 20:00 - 0/8 0/8 - - -
Fr, 18.06. 14:00 - 0/8 0/8 - - -
Fr, 18.06. 8:00 - 0/8 0/8 - - -
Fr, 18.06. 2:00 - 0/8 0/8 - - -
Do, 17.06. 20:00 - 0/8 0/8 - - -
Do, 17.06. 14:00 - 0/8 0/8 - - -
Ortszeit Bedeckungsgrad in Achtel und Wolkenuntergrenze
Sa, 19.06. 13:00 2(10500m) 3(10500m)
Sa, 19.06. 12:50 2(10500m) 3(10500m)
Sa, 19.06. 12:40 3(10500m) 5(10500m)
Sa, 19.06. 12:30 1(10500m) 4(12000m)
Sa, 19.06. 12:20 1(10500m) 1(12000m)
Sa, 19.06. 12:10 keine Wolken
Sa, 19.06. 12:00 keine Wolken
Sa, 19.06. 11:30 keine Wolken
Sa, 19.06. 11:00 1(3900m) 1(10500m)
Sa, 19.06. 10:30 1(12000m)
Sa, 19.06. 10:00 1(9000m)
Ortszeit Luftdruck NN (hPa) Tendenz (hPa in 3 Std.)
Sa, 19.06. 8:00 1014 + 0,5
Sa, 19.06. 2:00 1013 + 0,1
Fr, 18.06. 20:00 1012 - 0,2
Fr, 18.06. 14:00 1013 - 0,4
Fr, 18.06. 8:00 1014 + 0,5
Fr, 18.06. 2:00 1014 + 0,1
Do, 17.06. 20:00 1013 - 0,5
Do, 17.06. 14:00 1014 - 0,6
Ortszeit Luftdruck NN (hPa) Tendenz (hPa in 3 Std.)
Sa, 19.06. 13:00 1014 + 0,2
Sa, 19.06. 12:50 1014 keine Meldung
Sa, 19.06. 12:40 1014 keine Meldung
Sa, 19.06. 12:30 1014 + 0,6
Sa, 19.06. 12:20 1014 keine Meldung
Sa, 19.06. 12:10 1014 keine Meldung
Sa, 19.06. 12:00 1014 + 0,8
Sa, 19.06. 11:30 1014 + 0,7
Sa, 19.06. 11:00 1014 + 1,0
Sa, 19.06. 10:30 1014 + 0,9
Sa, 19.06. 10:00 1014 + 0,9
Ortszeit Schneehöhe (cm)
Sa, 19.06. 8:00 -
Sa, 19.06. 2:00 -
Fr, 18.06. 20:00 -
Fr, 18.06. 14:00 -
Fr, 18.06. 8:00 -
Fr, 18.06. 2:00 -
Do, 17.06. 20:00 -
Do, 17.06. 14:00 -
Ortszeit Schneehöhe (cm)
Sa, 19.06. 13:00 -
Sa, 19.06. 12:50 -
Sa, 19.06. 12:40 -
Sa, 19.06. 12:30 -
Sa, 19.06. 12:20 -
Sa, 19.06. 12:10 -
Sa, 19.06. 12:00 -
Sa, 19.06. 11:30 -
Sa, 19.06. 11:00 -
Sa, 19.06. 10:30 -
Sa, 19.06. 10:00 -
Link zu dieser Seite / Seite empfehlen

Das Wetter in ...